Time;durP1;ratioP1;P1;durP2;ratioP2;P2;SDS_P1;SDS_P2;PMS_P1;PMS_P2;Temp;Humidity;BMP_temperature;BMP_pressure;BME280_temperature;BME280_humidity;BME280_pressure;Samples;Min_cycle;Max_cycle;Signal;HPM_P1;HPM_P2
2023/07/16 00:00:12;;;;;;;15.02;4.80;;;16.80;99.90;;;;;;5094101;28;20040;-61
2023/07/16 00:02:38;;;;;;;15.65;5.43;;;16.80;99.90;;;;;;5093322;28;20517;-61
2023/07/16 00:05:04;;;;;;;14.27;5.20;;;16.80;99.90;;;;;;5094490;28;20149;-61
2023/07/16 00:07:30;;;;;;;11.57;5.72;;;16.90;99.90;;;;;;5092488;28;20039;-62
2023/07/16 00:09:55;;;;;;;16.75;5.03;;;16.90;99.90;;;;;;5075978;28;20573;-61
2023/07/16 00:12:21;;;;;;;9.40;4.97;;;16.90;99.90;;;;;;5092994;28;20138;-61
2023/07/16 00:14:48;;;;;;;10.82;5.07;;;16.90;99.90;;;;;;5093403;28;20032;-61
2023/07/16 00:17:14;;;;;;;13.55;5.25;;;17.00;99.90;;;;;;5076452;28;20044;-61
2023/07/16 00:19:39;;;;;;;14.73;4.90;;;17.00;99.90;;;;;;5092092;28;20036;-61
2023/07/16 00:22:05;;;;;;;10.88;4.35;;;17.00;99.90;;;;;;5093138;28;20093;-62
2023/07/16 00:24:31;;;;;;;16.23;5.25;;;17.00;99.90;;;;;;5092802;28;20366;-61
2023/07/16 00:26:57;;;;;;;12.32;4.80;;;16.90;99.90;;;;;;5093129;28;20366;-61
2023/07/16 00:29:23;;;;;;;14.70;5.35;;;16.90;99.90;;;;;;5092934;28;20178;-60
2023/07/16 00:31:49;;;;;;;11.10;4.57;;;16.90;99.90;;;;;;5093816;28;20119;-61
2023/07/16 00:34:14;;;;;;;12.60;4.00;;;16.80;99.90;;;;;;5091863;28;20115;-61
2023/07/16 00:36:40;;;;;;;13.75;4.35;;;16.70;99.90;;;;;;5093610;28;20451;-61
2023/07/16 00:39:06;;;;;;;13.00;4.43;;;16.60;99.90;;;;;;5092624;28;20044;-61
2023/07/16 00:41:32;;;;;;;12.50;4.15;;;16.60;99.90;;;;;;5091682;28;20624;-61
2023/07/16 00:43:58;;;;;;;9.75;3.72;;;16.50;99.90;;;;;;5093853;28;20400;-61
2023/07/16 00:46:24;;;;;;;14.07;4.30;;;16.40;99.90;;;;;;5092377;28;20532;-61
2023/07/16 00:48:50;;;;;;;9.65;4.22;;;16.40;99.90;;;;;;5091159;28;20060;-61
2023/07/16 00:51:17;;;;;;;10.05;4.05;;;16.30;99.90;;;;;;5093498;28;20393;-61
2023/07/16 00:53:45;;;;;;;11.23;4.10;;;16.30;99.90;;;;;;5092126;28;20044;-62
2023/07/16 00:56:17;;;;;;;11.13;4.35;;;16.30;99.90;;;;;;5091887;28;20043;-61
2023/07/16 00:58:43;;;;;;;10.32;4.10;;;16.30;99.90;;;;;;5092121;28;20532;-61
2023/07/16 01:01:09;;;;;;;13.10;3.35;;;16.20;99.90;;;;;;5091725;28;20115;-61
2023/07/16 01:03:35;;;;;;;11.02;3.83;;;16.20;99.90;;;;;;5092474;28;20177;-61
2023/07/16 01:06:10;;;;;;;13.57;4.28;;;16.20;99.90;;;;;;5093564;28;20047;-61
2023/07/16 01:08:40;;;;;;;;;;;16.20;99.90;;;;;;5093442;28;20137;-61
2023/07/16 01:11:06;;;;;;;15.35;3.97;;;16.10;99.90;;;;;;5091379;28;19923;-61
2023/07/16 01:13:33;;;;;;;16.25;4.32;;;16.10;99.90;;;;;;5091831;28;20051;-61
2023/07/16 01:15:59;;;;;;;10.38;3.78;;;16.20;99.90;;;;;;5091023;28;20079;-61
2023/07/16 01:18:25;;;;;;;12.07;4.53;;;16.20;99.90;;;;;;5074500;28;20071;-61
2023/07/16 01:20:51;;;;;;;10.88;3.95;;;16.20;99.90;;;;;;5092502;28;20107;-61
2023/07/16 01:23:25;;;;;;;10.90;3.25;;;16.20;99.90;;;;;;5073972;28;20039;-61
2023/07/16 01:25:57;;;;;;;11.70;3.53;;;16.20;99.90;;;;;;5092978;28;20039;-61
2023/07/16 01:29:04;;;;;;;10.02;3.78;;;16.20;99.90;;;;;;5074756;28;20431;-61
2023/07/16 01:31:31;;;;;;;9.63;3.53;;;16.20;99.90;;;;;;5090792;28;20119;-61
2023/07/16 01:33:59;;;;;;;17.55;4.25;;;16.20;99.90;;;;;;5092778;28;20043;-61
2023/07/16 01:36:25;;;;;;;11.90;4.53;;;16.20;99.90;;;;;;5092665;28;20032;-61
2023/07/16 01:38:52;;;;;;;10.27;3.72;;;16.20;99.90;;;;;;5090405;28;20483;-61
2023/07/16 01:41:18;;;;;;;9.55;3.70;;;16.20;99.90;;;;;;5091270;28;20040;-61
2023/07/16 01:43:44;;;;;;;9.98;4.63;;;16.20;99.90;;;;;;5091348;28;20040;-61
2023/07/16 01:46:10;;;;;;;9.27;4.20;;;16.20;99.90;;;;;;5090867;28;20101;-61
2023/07/16 01:48:37;;;;;;;14.13;4.15;;;16.30;99.90;;;;;;5092249;28;20039;-62
2023/07/16 01:51:03;;;;;;;8.70;4.00;;;16.30;99.90;;;;;;5090521;28;20081;-61
2023/07/16 01:53:29;;;;;;;11.88;4.40;;;16.30;99.90;;;;;;5073811;28;20447;-61
2023/07/16 01:55:55;;;;;;;14.18;3.30;;;16.30;99.90;;;;;;5091170;28;20036;-61
2023/07/16 01:58:21;;;;;;;14.23;3.92;;;16.40;99.90;;;;;;5090402;28;20092;-61
2023/07/16 02:00:48;;;;;;;10.48;3.47;;;16.40;99.90;;;;;;5091085;28;20437;-61
2023/07/16 02:03:14;;;;;;;9.93;3.25;;;16.40;99.90;;;;;;5091328;28;20055;-61
2023/07/16 02:05:40;;;;;;;8.82;3.50;;;16.30;99.90;;;;;;5091632;28;20036;-61
2023/07/16 02:08:06;;;;;;;10.45;3.60;;;16.30;99.90;;;;;;5074483;28;20470;-61
2023/07/16 02:10:31;;;;;;;12.15;3.55;;;16.30;99.90;;;;;;5091000;28;20079;-61
2023/07/16 02:12:57;;;;;;;11.18;3.35;;;16.40;99.90;;;;;;5090583;28;20400;-62
2023/07/16 02:15:23;;;;;;;10.25;3.20;;;16.40;99.90;;;;;;5090962;28;20036;-61
2023/07/16 02:17:48;;;;;;;13.98;4.25;;;16.40;99.90;;;;;;5090907;28;20075;-62
2023/07/16 02:20:14;;;;;;;11.63;3.67;;;16.40;99.90;;;;;;5091152;28;20024;-61
2023/07/16 02:22:43;;;;;;;8.80;2.92;;;16.40;99.90;;;;;;5090778;28;20047;-61
2023/07/16 02:25:08;;;;;;;11.32;3.42;;;16.40;99.90;;;;;;5091146;28;20488;-61
2023/07/16 02:27:34;;;;;;;9.60;3.35;;;16.40;99.90;;;;;;5072751;28;20047;-61
2023/07/16 02:30:00;;;;;;;9.32;3.17;;;16.50;99.90;;;;;;5090760;28;20538;-61
2023/07/16 02:32:26;;;;;;;7.43;2.95;;;16.40;99.90;;;;;;5124567;28;20036;-62
2023/07/16 02:34:51;;;;;;;11.88;4.05;;;16.40;99.90;;;;;;5091136;28;20035;-62
2023/07/16 02:37:17;;;;;;;9.55;3.58;;;16.40;99.90;;;;;;5091832;28;20397;-61
2023/07/16 02:39:46;;;;;;;10.63;3.47;;;16.40;99.90;;;;;;5090376;28;20042;-62
2023/07/16 02:42:14;;;;;;;10.02;3.97;;;16.40;99.90;;;;;;5091490;28;20083;-61
2023/07/16 02:44:44;;;;;;;9.63;4.00;;;16.40;99.90;;;;;;5090579;28;20066;-61
2023/07/16 02:47:10;;;;;;;8.32;4.35;;;16.40;99.90;;;;;;5092195;28;20115;-61
2023/07/16 02:49:36;;;;;;;8.23;4.18;;;16.40;99.90;;;;;;5088444;28;20089;-60
2023/07/16 02:52:02;;;;;;;10.55;3.55;;;16.40;99.90;;;;;;5089578;28;20047;-61
2023/07/16 02:54:28;;;;;;;9.88;3.47;;;16.30;99.90;;;;;;5090034;28;20044;-61
2023/07/16 02:56:54;;;;;;;10.27;4.35;;;16.30;99.90;;;;;;5090607;28;20048;-61
2023/07/16 02:59:19;;;;;;;9.30;3.78;;;16.30;99.90;;;;;;5091495;28;20032;-61
2023/07/16 03:01:45;;;;;;;10.02;4.03;;;16.30;99.90;;;;;;5123789;28;20040;-61
2023/07/16 03:04:11;;;;;;;12.07;4.25;;;16.30;99.90;;;;;;5091091;28;20079;-61
2023/07/16 03:06:36;;;;;;;8.27;4.22;;;16.30;99.90;;;;;;5091523;28;20043;-61
2023/07/16 03:09:03;;;;;;;13.70;4.15;;;16.30;99.90;;;;;;5089335;28;20036;-61
2023/07/16 03:11:28;;;;;;;12.98;4.93;;;16.30;99.90;;;;;;5091831;28;20039;-61
2023/07/16 03:13:54;;;;;;;12.80;4.78;;;16.30;99.90;;;;;;5091932;28;20372;-61
2023/07/16 03:16:20;;;;;;;11.55;4.63;;;16.30;99.90;;;;;;5090796;28;20124;-61
2023/07/16 03:18:45;;;;;;;7.72;4.40;;;16.30;99.90;;;;;;5090130;28;20044;-61
2023/07/16 03:21:12;;;;;;;10.50;4.75;;;16.20;99.90;;;;;;5091723;28;20119;-61
2023/07/16 03:23:38;;;;;;;12.23;4.70;;;16.30;99.90;;;;;;5091441;28;20051;-61
2023/07/16 03:26:04;;;;;;;9.68;4.75;;;16.30;99.90;;;;;;5095335;28;20397;-60
2023/07/16 03:28:29;;;;;;;10.30;4.72;;;16.30;99.90;;;;;;5093525;28;20079;-61
2023/07/16 03:30:55;;;;;;;11.00;4.68;;;16.30;99.90;;;;;;5093338;28;20044;-61
2023/07/16 03:33:21;;;;;;;10.10;5.30;;;16.40;99.90;;;;;;5076926;28;20032;-61
2023/07/16 03:35:48;;;;;;;17.67;5.07;;;16.40;99.90;;;;;;5094711;28;20039;-61
2023/07/16 03:38:14;;;;;;;11.65;5.22;;;16.40;99.90;;;;;;5092689;28;20043;-61
2023/07/16 03:40:45;;;;;;;10.77;6.07;;;16.40;99.90;;;;;;5110792;28;20042;-61
2023/07/16 03:43:11;;;;;;;12.05;5.07;;;16.40;99.90;;;;;;5095211;28;20043;-61
2023/07/16 03:45:37;;;;;;;12.10;4.90;;;16.50;99.90;;;;;;5126972;27;20048;-61
2023/07/16 03:48:03;;;;;;;10.38;4.35;;;16.50;99.90;;;;;;5093580;28;20039;-61
2023/07/16 03:50:28;;;;;;;9.73;4.60;;;16.50;99.90;;;;;;5108226;27;20480;-61
2023/07/16 03:52:54;;;;;;;10.75;4.40;;;16.50;99.90;;;;;;5072631;28;20044;-61
2023/07/16 03:55:20;;;;;;;11.48;4.50;;;16.50;99.90;;;;;;5073604;28;20052;-61
2023/07/16 03:57:46;;;;;;;11.55;4.82;;;16.50;99.90;;;;;;5073598;28;20115;-61
2023/07/16 04:00:11;;;;;;;9.30;5.18;;;16.50;99.90;;;;;;5089450;28;20183;-61
2023/07/16 04:02:37;;;;;;;14.43;6.40;;;16.50;99.90;;;;;;5093947;28;20039;-62
2023/07/16 04:05:03;;;;;;;14.38;5.90;;;16.50;99.90;;;;;;5093621;28;20077;-61
2023/07/16 04:07:29;;;;;;;14.32;4.85;;;16.50;99.90;;;;;;5094664;28;20066;-61
2023/07/16 04:09:54;;;;;;;11.85;5.28;;;16.50;99.90;;;;;;5094330;28;20062;-61
2023/07/16 04:12:20;;;;;;;15.90;6.05;;;16.50;99.90;;;;;;5092210;28;20068;-61
2023/07/16 04:14:47;;;;;;;12.18;5.25;;;16.50;99.90;;;;;;5094547;28;20043;-62
2023/07/16 04:17:12;;;;;;;13.35;5.68;;;16.50;99.90;;;;;;5076334;28;20032;-61
2023/07/16 04:19:38;;;;;;;11.48;5.65;;;16.50;99.90;;;;;;5092793;28;20404;-61
2023/07/16 04:22:05;;;;;;;9.52;4.97;;;16.50;99.90;;;;;;5092841;28;20445;-61
2023/07/16 04:24:30;;;;;;;16.08;6.10;;;16.50;99.90;;;;;;5094265;28;20036;-61
2023/07/16 04:26:57;;;;;;;12.55;5.78;;;16.60;99.90;;;;;;5093387;28;20048;-61
2023/07/16 04:29:23;;;;;;;12.45;5.85;;;16.60;99.90;;;;;;5093776;28;20386;-61
2023/07/16 04:31:49;;;;;;;14.93;6.75;;;16.70;99.90;;;;;;5126645;27;20051;-61
2023/07/16 04:34:14;;;;;;;15.32;5.80;;;16.70;99.90;;;;;;5093325;28;20047;-61
2023/07/16 04:36:42;;;;;;;15.80;6.85;;;16.80;99.90;;;;;;5108477;28;20078;-61
2023/07/16 04:39:08;;;;;;;12.55;6.88;;;16.90;99.90;;;;;;5093009;28;20036;-61
2023/07/16 04:41:34;;;;;;;14.07;6.72;;;17.00;99.90;;;;;;5093033;28;20032;-61
2023/07/16 04:43:59;;;;;;;10.90;5.63;;;17.10;99.90;;;;;;5093775;28;20122;-61
2023/07/16 04:46:25;;;;;;;17.40;6.65;;;17.20;99.90;;;;;;5093655;28;20050;-61
2023/07/16 04:48:51;;;;;;;14.00;5.97;;;17.20;99.90;;;;;;5092578;28;20449;-61
2023/07/16 04:51:16;;;;;;;13.60;5.80;;;17.20;99.90;;;;;;5126504;27;20066;-62
2023/07/16 04:53:42;;;;;;;12.55;6.35;;;17.20;99.90;;;;;;5093640;28;20072;-62
2023/07/16 04:56:12;;;;;;;10.75;6.00;;;17.20;99.90;;;;;;5091576;28;20100;-61
2023/07/16 04:58:38;;;;;;;14.73;6.18;;;17.20;99.90;;;;;;5075709;28;20043;-61
2023/07/16 05:01:04;;;;;;;14.95;6.07;;;17.10;99.90;;;;;;5091340;28;20040;-61
2023/07/16 05:03:29;;;;;;;12.77;6.15;;;17.30;99.90;;;;;;5091921;28;20044;-61
2023/07/16 05:05:55;;;;;;;15.40;6.30;;;17.30;99.90;;;;;;5092355;28;20044;-61
2023/07/16 05:08:21;;;;;;;17.35;6.65;;;17.40;99.90;;;;;;5091244;28;20515;-61
2023/07/16 05:10:46;;;;;;;13.77;6.47;;;17.40;99.90;;;;;;5093283;28;20058;-61
2023/07/16 05:13:12;;;;;;;14.30;6.20;;;17.50;99.90;;;;;;5092278;28;20044;-61
2023/07/16 05:15:38;;;;;;;16.50;6.60;;;17.50;99.90;;;;;;5092541;28;20042;-61
2023/07/16 05:18:03;;;;;;;14.98;6.63;;;17.50;99.90;;;;;;5091736;28;20032;-62
2023/07/16 05:20:29;;;;;;;18.98;7.05;;;17.60;99.90;;;;;;5093280;28;20040;-62
2023/07/16 05:22:55;;;;;;;8.18;4.38;;;17.70;99.90;;;;;;5091099;28;20114;-61
2023/07/16 05:25:20;;;;;;;15.48;5.85;;;17.60;99.90;;;;;;5093147;28;20036;-62
2023/07/16 05:27:46;;;;;;;11.75;5.75;;;17.60;99.90;;;;;;5092585;28;20152;-62
2023/07/16 05:30:12;;;;;;;15.35;6.93;;;17.50;99.90;;;;;;5125217;27;20110;-62
2023/07/16 05:32:38;;;;;;;13.35;6.38;;;17.40;99.90;;;;;;5091659;28;20047;-62
2023/07/16 05:35:04;;;;;;;15.10;6.55;;;17.30;99.90;;;;;;5092964;28;20059;-62
2023/07/16 05:37:30;;;;;;;17.92;7.15;;;17.20;99.90;;;;;;5090286;28;20040;-62
2023/07/16 05:39:55;;;;;;;13.63;6.28;;;17.10;99.90;;;;;;5091532;28;20420;-62
2023/07/16 05:42:21;;;;;;;18.40;7.18;;;17.00;99.90;;;;;;5091372;28;20047;-62
2023/07/16 05:44:49;;;;;;;12.38;6.35;;;17.00;99.90;;;;;;5091701;28;20122;-62
2023/07/16 05:47:15;;;;;;;11.50;5.28;;;17.00;99.90;;;;;;5092028;28;20411;-62
2023/07/16 05:49:41;;;;;;;15.15;6.30;;;17.00;99.90;;;;;;5091090;28;20067;-62
2023/07/16 05:52:07;;;;;;;13.25;6.28;;;17.00;99.90;;;;;;5124850;27;20048;-62
2023/07/16 05:54:32;;;;;;;17.83;7.55;;;17.10;99.90;;;;;;5092523;28;20040;-62
2023/07/16 05:56:59;;;;;;;12.60;6.55;;;17.20;99.90;;;;;;5113938;27;20040;-61
2023/07/16 05:59:24;;;;;;;11.73;5.63;;;17.40;99.90;;;;;;5086823;28;20123;-62
2023/07/16 06:01:50;;;;;;;17.90;7.00;;;17.50;99.90;;;;;;5072030;28;20079;-62
2023/07/16 06:04:16;;;;;;;11.30;5.35;;;17.60;99.90;;;;;;5071482;28;20045;-62
2023/07/16 06:06:41;;;;;;;12.05;5.25;;;17.50;99.90;;;;;;5079739;28;20434;-62
2023/07/16 06:09:07;;;;;;;13.73;5.30;;;17.50;99.90;;;;;;5092595;28;20485;-61
2023/07/16 06:11:32;;;;;;;13.23;4.88;;;17.50;99.90;;;;;;5124133;27;20040;-61
2023/07/16 06:13:58;;;;;;;13.40;5.38;;;17.60;99.90;;;;;;5091926;28;20033;-62
2023/07/16 06:16:24;;;;;;;12.70;5.28;;;17.70;99.90;;;;;;5090672;28;20123;-62
2023/07/16 06:18:53;;;;;;;10.40;4.57;;;17.70;99.90;;;;;;5117373;27;20028;-62
2023/07/16 06:21:19;;;;;;;13.63;5.43;;;17.70;99.90;;;;;;5092099;28;20047;-62
2023/07/16 06:23:44;;;;;;;12.60;4.32;;;17.70;99.90;;;;;;5091193;28;20412;-62
2023/07/16 06:26:10;;;;;;;13.63;5.28;;;17.70;99.90;;;;;;5090510;28;20040;-62
2023/07/16 06:28:36;;;;;;;11.65;5.47;;;17.90;99.90;;;;;;5090697;28;20056;-62
2023/07/16 06:31:01;;;;;;;17.20;5.20;;;18.00;99.90;;;;;;5115147;28;20504;-63
2023/07/16 06:33:28;;;;;;;14.60;5.22;;;18.10;99.90;;;;;;5088127;28;20512;-63
2023/07/16 06:35:53;;;;;;;13.50;5.47;;;18.20;99.90;;;;;;5085812;28;20493;-62
2023/07/16 06:38:19;;;;;;;14.45;5.28;;;18.20;99.90;;;;;;5104474;28;20042;-62
2023/07/16 06:40:51;;;;;;;11.65;5.45;;;18.30;99.90;;;;;;5088350;28;20447;-62
2023/07/16 06:43:18;;;;;;;12.32;5.00;;;18.50;99.90;;;;;;5084981;28;20047;-63
2023/07/16 06:45:43;;;;;;;10.65;5.43;;;18.40;99.90;;;;;;5087622;28;20036;-63
2023/07/16 06:48:09;;;;;;;10.23;5.28;;;18.30;99.90;;;;;;5083695;28;20408;-63
2023/07/16 06:50:35;;;;;;;11.77;5.55;;;18.30;99.90;;;;;;5087889;28;20154;-62
2023/07/16 06:53:01;;;;;;;11.70;5.63;;;18.50;99.90;;;;;;5088218;28;20123;-63
2023/07/16 06:55:26;;;;;;;9.73;5.28;;;18.60;99.90;;;;;;5121461;28;20044;-62
2023/07/16 06:57:52;;;;;;;14.30;5.40;;;18.70;99.90;;;;;;5101389;28;20048;-63
2023/07/16 07:00:18;;;;;;;13.75;5.95;;;18.80;99.90;;;;;;5092164;28;20078;-62
2023/07/16 07:02:44;;;;;;;12.13;5.43;;;18.70;99.90;;;;;;5092299;28;20393;-63
2023/07/16 07:05:09;;;;;;;9.43;5.25;;;18.70;99.90;;;;;;5126525;27;20101;-62
2023/07/16 07:07:35;;;;;;;11.48;4.78;;;18.40;99.90;;;;;;5092341;28;20032;-63
2023/07/16 07:10:02;;;;;;;10.90;5.90;;;18.20;99.90;;;;;;5092104;28;20051;-62
2023/07/16 07:12:28;;;;;;;12.32;5.53;;;18.00;99.90;;;;;;5073972;28;20071;-62
2023/07/16 07:14:53;;;;;;;11.70;5.95;;;17.80;99.90;;;;;;5089689;28;20040;-62
2023/07/16 07:17:19;;;;;;;13.32;5.47;;;17.70;99.90;;;;;;5090951;28;20028;-62
2023/07/16 07:19:45;;;;;;;16.20;6.20;;;17.60;99.90;;;;;;5123775;27;20468;-62
2023/07/16 07:22:10;;;;;;;13.13;6.00;;;17.50;99.90;;;;;;5125427;27;20043;-62
2023/07/16 07:24:36;;;;;;;12.18;5.47;;;17.50;99.90;;;;;;5091677;28;20040;-62
2023/07/16 07:27:02;;;;;;;12.00;5.78;;;17.50;99.90;;;;;;5091426;28;20075;-62
2023/07/16 07:29:28;;;;;;;13.25;5.88;;;17.50;99.90;;;;;;5089228;28;20044;-62
2023/07/16 07:31:53;;;;;;;16.30;6.35;;;17.40;99.90;;;;;;5092273;28;20052;-62
2023/07/16 07:34:19;;;;;;;14.13;6.45;;;17.40;99.90;;;;;;5073715;28;20048;-62
2023/07/16 07:36:46;;;;;;;14.45;6.20;;;17.40;99.90;;;;;;5091777;28;20083;-62
2023/07/16 07:39:16;;;;;;;10.75;5.60;;;17.50;99.90;;;;;;5090734;28;20374;-63
2023/07/16 07:41:42;;;;;;;16.27;5.88;;;17.60;99.90;;;;;;5091062;28;20039;-62
2023/07/16 07:44:08;;;;;;;11.88;5.13;;;17.60;99.90;;;;;;5090599;28;20039;-62
2023/07/16 07:46:34;;;;;;;10.60;5.13;;;17.70;99.90;;;;;;5090422;28;20415;-63
2023/07/16 07:49:00;;;;;;;10.18;5.18;;;17.80;99.90;;;;;;5073750;28;20364;-64
2023/07/16 07:51:25;;;;;;;14.93;5.93;;;17.80;99.90;;;;;;5089367;28;20568;-63
2023/07/16 07:53:51;;;;;;;17.77;5.93;;;17.90;99.90;;;;;;5090221;28;20125;-63
2023/07/16 07:56:17;;;;;;;10.35;5.05;;;18.20;99.90;;;;;;5091975;28;20031;-63
2023/07/16 07:58:43;;;;;;;9.85;4.40;;;18.30;99.90;;;;;;5098702;28;20401;-63
2023/07/16 08:01:09;;;;;;;14.43;5.10;;;18.40;99.90;;;;;;5088577;28;20069;-63
2023/07/16 08:03:35;;;;;;;11.68;5.60;;;18.50;99.90;;;;;;5092544;28;20046;-63
2023/07/16 08:06:01;;;;;;;11.15;5.00;;;18.60;99.90;;;;;;5089935;28;20085;-63
2023/07/16 08:08:27;;;;;;;13.52;5.05;;;18.80;99.90;;;;;;5084846;28;20044;-63
2023/07/16 08:10:54;;;;;;;10.98;4.50;;;18.90;99.90;;;;;;5091382;28;20407;-62
2023/07/16 08:13:20;;;;;;;13.80;5.93;;;19.10;99.90;;;;;;5094183;28;20094;-63
2023/07/16 08:15:45;;;;;;;13.88;5.22;;;19.00;99.90;;;;;;5092861;28;20423;-62
2023/07/16 08:18:11;;;;;;;10.13;4.72;;;19.00;99.90;;;;;;5093772;28;20032;-62
2023/07/16 08:20:37;;;;;;;15.18;5.82;;;19.00;99.90;;;;;;5094423;28;20125;-63
2023/07/16 08:23:02;;;;;;;21.10;6.30;;;19.00;99.90;;;;;;5094046;28;20366;-62
2023/07/16 08:25:28;;;;;;;9.98;4.40;;;19.00;99.90;;;;;;5093584;28;20085;-62
2023/07/16 08:27:54;;;;;;;13.43;5.55;;;18.90;99.90;;;;;;5092959;28;20039;-62
2023/07/16 08:30:20;;;;;;;11.27;5.05;;;19.00;99.90;;;;;;5092246;28;20047;-63
2023/07/16 08:32:46;;;;;;;11.90;4.68;;;19.10;99.90;;;;;;5091710;28;20432;-63
2023/07/16 08:35:16;;;;;;;12.10;5.25;;;19.10;99.90;;;;;;5092843;28;20032;-62
2023/07/16 08:37:45;;;;;;;12.68;5.05;;;19.40;99.90;;;;;;5123974;27;20094;-62
2023/07/16 08:40:14;;;;;;;15.20;5.18;;;19.40;99.90;;;;;;5093409;28;20028;-62
2023/07/16 08:42:40;;;;;;;11.02;5.05;;;19.30;99.90;;;;;;5093728;28;20051;-62
2023/07/16 08:45:09;;;;;;;13.85;5.20;;;19.40;99.90;;;;;;5093906;28;20047;-63
2023/07/16 08:47:35;;;;;;;9.73;4.72;;;19.40;99.90;;;;;;5091420;28;20080;-63
2023/07/16 08:50:02;;;;;;;14.63;5.28;;;19.30;99.90;;;;;;5075498;28;20060;-63
2023/07/16 08:52:29;;;;;;;13.07;4.47;;;19.40;99.90;;;;;;5092361;28;20036;-63
2023/07/16 08:54:55;;;;;;;11.75;5.25;;;19.30;99.90;;;;;;5074303;28;20028;-63
2023/07/16 08:57:21;;;;;;;10.50;5.43;;;19.40;99.90;;;;;;5092460;28;20403;-62
2023/07/16 08:59:49;;;;;;;11.73;4.90;;;19.60;99.90;;;;;;5075602;28;20040;-62
2023/07/16 09:02:18;;;;;;;10.80;4.57;;;19.80;99.90;;;;;;5091466;28;20485;-62
2023/07/16 09:04:46;;;;;;;10.77;4.70;;;19.90;99.90;;;;;;5093520;28;20443;-62
2023/07/16 09:07:12;;;;;;;12.23;4.82;;;19.90;99.90;;;;;;5074521;28;20054;-62
2023/07/16 09:09:37;;;;;;;10.70;5.10;;;19.90;99.90;;;;;;5091991;28;20044;-62
2023/07/16 09:12:03;;;;;;;13.00;4.47;;;19.90;99.90;;;;;;5109095;28;20044;-63
2023/07/16 09:14:29;;;;;;;10.93;4.80;;;19.90;99.90;;;;;;5092659;28;20097;-62
2023/07/16 09:16:54;;;;;;;12.95;5.30;;;20.10;99.90;;;;;;5091579;28;20393;-62
2023/07/16 09:19:21;;;;;;;14.13;5.40;;;20.30;99.90;;;;;;5109455;27;20096;-62
2023/07/16 09:21:50;;;;;;;10.95;4.60;;;20.40;99.90;;;;;;5091829;28;20043;-63
2023/07/16 09:24:17;;;;;;;15.10;5.30;;;20.40;99.90;;;;;;5091314;28;20054;-63
2023/07/16 09:26:50;;;;;;;9.35;4.75;;;20.50;99.90;;;;;;5092848;28;20043;-62
2023/07/16 09:29:16;;;;;;;9.95;5.22;;;20.60;99.90;;;;;;5091110;28;20369;-62
2023/07/16 09:31:59;;;;;;;10.00;5.55;;;20.50;99.90;;;;;;5091099;28;20428;-61
2023/07/16 09:34:27;;;;;;;10.55;5.28;;;20.40;99.90;;;;;;5092565;28;20032;-61
2023/07/16 09:36:53;;;;;;;12.73;4.53;;;20.20;99.90;;;;;;5090482;28;20066;-61
2023/07/16 09:39:19;;;;;;;12.93;5.47;;;20.30;99.90;;;;;;5074116;28;20468;-61
2023/07/16 09:41:49;;;;;;;13.65;5.47;;;20.30;99.90;;;;;;5107198;28;20434;-61
2023/07/16 09:44:19;;;;;;;11.43;4.38;;;20.50;99.90;;;;;;5120330;27;20036;-62
2023/07/16 09:46:45;;;;;;;11.05;5.32;;;20.60;99.90;;;;;;5091208;28;20044;-61
2023/07/16 09:49:11;;;;;;;9.63;4.25;;;20.70;99.90;;;;;;5092748;28;20052;-60
2023/07/16 09:51:38;;;;;;;14.95;5.72;;;20.70;99.90;;;;;;5090071;28;20051;-60
2023/07/16 09:54:05;;;;;;;10.55;4.45;;;20.60;99.90;;;;;;5090977;28;20036;-60
2023/07/16 09:56:46;;;;;;;9.43;4.93;;;20.60;99.90;;;;;;5089944;28;20043;-60
2023/07/16 09:59:16;;;;;;;13.85;5.22;;;20.60;99.90;;;;;;5092469;28;20036;-60
2023/07/16 10:01:42;;;;;;;47.85;6.90;;;20.70;99.90;;;;;;5074027;28;20032;-61
2023/07/16 10:04:15;;;;;;;10.85;4.88;;;20.80;99.90;;;;;;5091491;28;20385;-60
2023/07/16 10:06:56;;;;;;;10.13;3.50;;;20.90;99.90;;;;;;5089585;28;20040;-61
2023/07/16 10:09:50;;;;;;;9.95;4.28;;;20.70;99.90;;;;;;5090662;28;20142;-62
2023/07/16 10:12:18;;;;;;;10.43;3.83;;;20.80;99.90;;;;;;5104101;28;20051;-62
2023/07/16 10:14:46;;;;;;;14.18;4.95;;;20.80;99.90;;;;;;5084021;28;20427;-62
2023/07/16 10:17:18;;;;;;;12.02;4.88;;;20.70;99.90;;;;;;5092414;28;20085;-61
2023/07/16 10:20:12;;;;;;;11.40;4.65;;;20.60;99.90;;;;;;5089851;28;20036;-61
2023/07/16 10:22:40;;;;;;;13.23;4.85;;;20.50;99.90;;;;;;5091595;28;20483;-61
2023/07/16 10:25:17;;;;;;;11.73;5.28;;;20.10;99.90;;;;;;5090152;28;20050;-61
2023/07/16 10:27:45;;;;;;;10.50;4.35;;;19.80;99.90;;;;;;5107564;28;20092;-61
2023/07/16 10:30:10;;;;;;;10.48;4.40;;;19.60;99.90;;;;;;5091770;28;20085;-61
2023/07/16 10:32:36;;;;;;;12.05;4.05;;;19.50;99.90;;;;;;5089755;28;20047;-61
2023/07/16 10:35:03;;;;;;;9.65;4.35;;;19.60;99.90;;;;;;5094447;28;20036;-61
2023/07/16 10:37:29;;;;;;;13.88;5.30;;;19.70;99.90;;;;;;5094540;28;20040;-61
2023/07/16 10:39:58;;;;;;;10.38;3.60;;;19.90;99.90;;;;;;5094259;28;20071;-63
2023/07/16 10:42:25;;;;;;;9.45;3.58;;;19.90;99.90;;;;;;5095882;28;20044;-62
2023/07/16 10:44:57;;;;;;;13.85;4.00;;;19.90;99.90;;;;;;5093385;28;20044;-61
2023/07/16 10:47:24;;;;;;;11.10;4.38;;;19.80;99.90;;;;;;5093136;28;20090;-60
2023/07/16 10:49:54;;;;;;;11.10;3.40;;;19.80;99.90;;;;;;5093827;28;20082;-60
2023/07/16 10:52:21;;;;;;;10.52;3.28;;;19.70;99.90;;;;;;5089199;28;20055;-60
2023/07/16 10:54:47;;;;;;;13.57;3.80;;;19.80;99.90;;;;;;5090872;28;20058;-61
2023/07/16 10:57:13;;;;;;;11.88;3.40;;;19.80;99.90;;;;;;5091265;28;20489;-62
2023/07/16 10:59:40;;;;;;;8.00;2.92;;;19.80;99.90;;;;;;5091769;28;20032;-62
2023/07/16 11:02:10;;;;;;;9.07;4.28;;;19.80;99.90;;;;;;5093773;28;20072;-61
2023/07/16 11:04:36;;;;;;;15.93;3.92;;;19.90;99.90;;;;;;5093067;28;20500;-61
2023/07/16 11:07:09;;;;;;;15.07;4.03;;;19.80;99.90;;;;;;5091457;28;20094;-61
2023/07/16 11:09:43;;;;;;;10.05;4.13;;;19.70;99.90;;;;;;5093090;28;20405;-62
2023/07/16 11:12:10;;;;;;;;;;;19.70;99.90;;;;;;5091152;28;20040;-61
2023/07/16 11:14:36;;;;;;;9.02;4.10;;;19.60;99.90;;;;;;5091208;28;19916;-61
2023/07/16 11:17:07;;;;;;;10.32;3.78;;;19.90;99.90;;;;;;5092278;28;20043;-62
2023/07/16 11:19:33;;;;;;;9.20;3.67;;;20.10;99.90;;;;;;5074410;28;20040;-62
2023/07/16 11:22:00;;;;;;;10.10;3.40;;;20.20;99.90;;;;;;5090990;28;20066;-62
2023/07/16 11:24:27;;;;;;;13.15;4.50;;;20.20;99.90;;;;;;5091176;28;20036;-61
2023/07/16 11:26:56;;;;;;;9.80;4.03;;;20.30;99.90;;;;;;5092765;28;20052;-62
2023/07/16 11:29:23;;;;;;;11.82;4.18;;;20.50;99.90;;;;;;5090502;28;20056;-61
2023/07/16 11:31:52;;;;;;;8.93;3.67;;;20.50;99.90;;;;;;5090663;28;20039;-62
2023/07/16 11:34:22;;;;;;;17.35;4.68;;;20.40;99.90;;;;;;5091295;28;20040;-61
2023/07/16 11:36:49;;;;;;;8.05;3.53;;;20.30;99.90;;;;;;5090405;28;20070;-61
2023/07/16 11:39:15;;;;;;;11.18;4.07;;;20.20;99.90;;;;;;5090479;28;20043;-62
2023/07/16 11:41:40;;;;;;;11.80;4.22;;;20.10;99.90;;;;;;5090174;28;20036;-62
2023/07/16 11:44:10;;;;;;;11.82;4.22;;;20.20;99.90;;;;;;5090779;28;20416;-62
2023/07/16 11:46:36;;;;;;;10.25;2.72;;;20.50;99.90;;;;;;5090512;28;20040;-60
2023/07/16 11:49:03;;;;;;;12.48;3.20;;;20.70;99.90;;;;;;5120083;27;20550;-63
2023/07/16 11:51:29;;;;;;;11.02;3.28;;;20.60;99.90;;;;;;5090278;28;20070;-61
2023/07/16 11:53:57;;;;;;;10.05;2.90;;;20.50;99.90;;;;;;5091514;28;20040;-61
2023/07/16 11:56:23;;;;;;;10.57;3.10;;;20.30;99.90;;;;;;5089930;28;20073;-62
2023/07/16 11:58:49;;;;;;;10.05;3.35;;;20.10;99.90;;;;;;5093273;28;20031;-62
2023/07/16 12:01:15;;;;;;;12.25;3.38;;;20.00;99.90;;;;;;5096467;28;20043;-62
2023/07/16 12:03:40;;;;;;;14.70;3.20;;;19.90;99.90;;;;;;5090071;28;20040;-61
2023/07/16 12:06:06;;;;;;;13.48;3.95;;;19.80;99.90;;;;;;5107952;27;20162;-61
2023/07/16 12:08:32;;;;;;;15.82;4.22;;;19.90;99.90;;;;;;5114508;27;20044;-61
2023/07/16 12:10:58;;;;;;;9.77;2.75;;;20.10;99.90;;;;;;5087681;28;20039;-61
2023/07/16 12:13:24;;;;;;;11.27;4.13;;;20.40;99.90;;;;;;5074047;28;20040;-61
2023/07/16 12:15:49;;;;;;;10.27;3.58;;;20.70;99.90;;;;;;5092800;28;20028;-61
2023/07/16 12:18:15;;;;;;;12.55;3.75;;;20.70;99.90;;;;;;5092264;28;20039;-61
2023/07/16 12:20:41;;;;;;;8.63;3.13;;;20.60;99.90;;;;;;5092413;28;20035;-61
2023/07/16 12:23:07;;;;;;;11.02;3.55;;;20.50;99.90;;;;;;5092569;28;20036;-61
2023/07/16 12:25:33;;;;;;;13.75;4.32;;;20.40;99.90;;;;;;5093446;28;20089;-62
2023/07/16 12:28:01;;;;;;;15.00;4.22;;;20.20;99.90;;;;;;5093915;28;20438;-61
2023/07/16 12:30:27;;;;;;;12.35;4.45;;;20.00;99.90;;;;;;5092102;28;20039;-61
2023/07/16 12:32:53;;;;;;;13.10;4.40;;;19.90;99.90;;;;;;5089598;28;20543;-62
2023/07/16 12:35:20;;;;;;;11.82;4.00;;;19.70;99.90;;;;;;5072967;28;20036;-62